Time;durP1;ratioP1;P1;durP2;ratioP2;P2;SDS_P1;SDS_P2;PMS_P1;PMS_P2;Temp;Humidity;BMP_temperature;BMP_pressure;BME280_temperature;BME280_humidity;BME280_pressure;Samples;Min_cycle;Max_cycle;Signal;HPM_P1;HPM_P2
2023/03/30 08:28:20;;;;;;;;;3.00;2.00;;;;;16.73;51.23;100818.69;6225391;22;73097;-74
2023/03/30 08:30:46;;;;;;;;;3.00;2.00;;;;;17.05;51.95;100869.41;6277197;22;46116;-73
2023/03/30 08:33:12;;;;;;;;;2.00;1.00;;;;;17.07;51.68;100864.09;6277215;22;45221;-74
2023/03/30 08:35:38;;;;;;;;;5.67;1.67;;;;;16.87;51.34;100832.94;6276976;22;45266;-74
2023/03/30 08:38:03;;;;;;;;;5.33;2.00;;;;;17.41;51.13;100899.63;6276863;22;45316;-74
2023/03/30 08:40:29;;;;;;;;;3.33;2.33;;;;;17.55;51.07;100899.59;6277068;22;45700;-74
2023/03/30 08:43:16;;;;;;;;;4.00;3.33;;;;;17.72;50.88;100921.84;6276873;22;45312;-75
2023/03/30 08:45:43;;;;;;;;;2.00;1.67;;;;;17.71;49.73;100930.75;6276344;22;45446;-75
2023/03/30 08:48:21;;;;;;;;;1.67;1.67;;;;;17.66;50.68;100930.75;6276831;22;45611;-74
2023/03/30 08:50:57;;;;;;;;;2.00;2.00;;;;;17.55;50.32;100926.34;6281021;22;46721;-74
2023/03/30 08:53:22;;;;;;;;;6.33;1.67;;;;;17.40;50.04;100922.81;6277096;22;45391;-74
2023/03/30 08:56:26;;;;;;;;;4.67;2.33;;;;;17.42;50.64;100933.47;6273332;22;45241;-75
2023/03/30 08:58:51;;;;;;;;;3.67;2.00;;;;;17.37;50.02;100925.50;6181921;23;45506;-74
2023/03/30 09:01:23;;;;;;;;;3.00;2.33;;;;;17.33;50.27;100937.06;6250217;22;45540;-74
2023/03/30 09:04:06;;;;;;;;;3.33;2.00;;;;;17.30;50.93;100936.19;6274836;22;45238;-76
2023/03/30 09:06:54;;;;;;;;;5.00;2.00;;;;;17.22;51.37;100937.09;6276817;22;45186;-75
2023/03/30 09:09:27;;;;;;;;;7.00;2.00;;;;;17.06;51.74;100929.09;6277075;22;45161;-74
2023/03/30 09:12:03;;;;;;;;;2.00;2.00;;;;;16.84;52.09;100913.06;6276081;22;45194;-75
2023/03/30 09:14:38;;;;;;;;;5.33;2.67;;;;;16.91;52.25;100944.19;6276255;22;45169;-75
2023/03/30 09:17:13;;;;;;;;;2.67;2.00;;;;;16.85;51.97;100938.84;6276513;22;45242;-75
2023/03/30 09:19:52;;;;;;;;;3.00;2.00;;;;;16.85;51.51;100943.31;6276848;22;45457;-75
2023/03/30 09:22:18;;;;;;;;;3.00;2.00;;;;;16.84;51.66;100941.53;6274241;22;45425;-74
2023/03/30 09:24:44;;;;;;;;;6.00;2.67;;;;;16.50;51.41;100896.97;6276907;22;44657;-75
2023/03/30 09:27:26;;;;;;;;;3.67;2.00;;;;;16.71;51.48;100933.47;6276748;22;45197;-75
2023/03/30 09:29:54;;;;;;;;;3.00;1.00;;;;;16.81;51.71;100960.22;6273652;22;46615;-75
2023/03/30 09:32:40;;;;;;;;;4.33;1.00;;;;;16.69;51.48;100931.69;6275952;22;46160;-75
2023/03/30 09:35:17;;;;;;;;;3.00;3.00;;;;;16.83;51.70;100955.75;6276580;22;45215;-75
2023/03/30 09:37:43;;;;;;;;;3.33;2.00;;;;;16.85;51.83;100957.53;6276597;22;45227;-74
2023/03/30 09:40:28;;;;;;;;;2.00;2.00;;;;;16.77;51.36;100917.47;6276933;22;45209;-75
2023/03/30 09:43:07;;;;;;;;;5.00;3.33;;;;;16.97;51.25;100954.91;6277613;22;46493;-75
2023/03/30 09:45:33;;;;;;;;;6.00;2.33;;;;;17.03;51.48;100955.78;6277552;22;45299;-75
2023/03/30 09:48:07;;;;;;;;;2.00;1.00;;;;;17.08;51.72;100964.69;6276636;22;45456;-77
2023/03/30 09:50:38;;;;;;;;;4.67;2.00;;;;;16.93;51.40;100926.41;6277843;22;45297;-74
2023/03/30 09:53:17;;;;;;;;;6.00;3.00;;;;;17.05;51.55;100937.97;6275703;22;47247;-75
2023/03/30 09:56:08;;;;;;;;;3.67;3.00;;;;;17.25;51.17;100952.19;6277578;22;45349;-77
2023/03/30 09:58:34;;;;;;;;;7.00;2.67;;;;;17.34;51.21;100929.97;6277618;22;45286;-77
2023/03/30 10:01:18;;;;;;;;;9.67;3.00;;;;;17.61;50.97;100953.06;6277714;22;45435;-77
2023/03/30 10:04:03;;;;;;;;;7.67;2.00;;;;;17.64;50.50;100961.06;6277645;22;45332;-77
2023/03/30 10:06:32;;;;;;;;;6.67;1.00;;;;;17.51;50.37;100956.66;6277651;22;45242;-76
2023/03/30 10:08:57;;;;;;;;;3.00;2.33;;;;;17.43;50.36;100968.22;6278071;22;45254;-78
2023/03/30 10:11:34;;;;;;;;;4.33;3.00;;;;;17.47;50.18;100973.56;6277765;22;45341;-77
2023/03/30 10:14:00;;;;;;;;;6.33;3.00;;;;;17.42;50.58;100963.78;6277220;22;45392;-75
2023/03/30 10:16:31;;;;;;;;;3.00;3.00;;;;;17.38;50.45;100927.25;6277667;22;45247;-79
2023/03/30 10:19:15;;;;;;;;;4.00;3.00;;;;;17.53;49.91;100944.16;6278089;22;45242;-79
2023/03/30 10:21:45;;;;;;;;;5.67;2.00;;;;;17.71;49.73;100964.63;6277475;22;45467;-79
2023/03/30 10:24:14;;;;;;;;;5.33;3.00;;;;;17.85;48.81;100965.50;6277933;22;46550;-79
2023/03/30 10:26:44;;;;;;;;;2.67;1.67;;;;;17.91;48.63;100975.31;6277537;22;45199;-79
2023/03/30 10:29:17;;;;;;;;;3.33;2.33;;;;;17.91;49.16;100957.47;6277670;22;45307;-78
2023/03/30 10:31:45;;;;;;;;;3.00;2.00;;;;;17.87;48.02;100948.56;6276767;22;45655;-78
2023/03/30 10:34:17;;;;;;;;;3.67;3.67;;;;;18.04;48.32;100943.16;6277969;22;45232;-78
2023/03/30 10:36:46;;;;;;;;;1.67;1.67;;;;;18.29;47.73;100935.03;6277106;22;45394;-79
2023/03/30 10:39:15;;;;;;;;;4.67;3.00;;;;;18.43;46.86;100940.28;6275881;22;45376;-78
2023/03/30 10:41:41;;;;;;;;;4.67;3.00;;;;;18.72;46.28;100950.81;6277397;22;45230;-77
2023/03/30 10:44:22;;;;;;;;;4.67;1.00;;;;;19.00;45.66;100935.47;6277591;22;45516;-77
2023/03/30 10:46:51;;;;;;;;;5.67;3.33;;;;;19.51;44.89;100935.88;6277942;22;45157;-78
2023/03/30 10:49:42;;;;;;;;;2.67;1.67;;;;;19.83;44.86;100915.91;6275152;22;45254;-78
2023/03/30 10:52:28;;;;;;;;;6.67;2.67;;;;;20.27;44.69;100962.75;6277376;22;45548;-78
2023/03/30 10:55:17;;;;;;;;;0.67;0.67;;;;;20.33;43.33;100950.16;6277610;22;45447;-77
2023/03/30 10:57:56;;;;;;;;;1.00;1.00;;;;;20.23;43.44;100943.13;6277111;22;45239;-77
2023/03/30 11:00:41;;;;;;;;;0.67;0.67;;;;;19.96;43.59;100912.16;6277988;22;45208;-78
2023/03/30 11:03:30;;;;;;;;;4.00;2.67;;;;;19.96;43.11;100938.09;6277267;22;45699;-75
2023/03/30 11:06:00;;;;;;;;;6.00;2.67;;;;;19.96;43.23;100943.47;6275536;22;45117;-76
2023/03/30 11:08:31;;;;;;;;;7.33;2.00;;;;;20.07;43.36;100941.53;6275840;22;45236;-76
2023/03/30 11:10:58;;;;;;;;;2.33;1.33;;;;;20.04;42.47;100929.03;6278028;22;45192;-76
2023/03/30 11:13:34;;;;;;;;;1.33;1.33;;;;;20.07;42.79;100926.31;6277071;22;45471;-73
2023/03/30 11:16:06;;;;;;;;;1.00;0.33;;;;;20.01;42.26;100926.41;6277802;22;45442;-76
2023/03/30 11:18:38;;;;;;;;;1.67;1.67;;;;;20.02;42.81;100941.59;6277822;22;45269;-76
2023/03/30 11:21:06;;;;;;;;;2.00;2.00;;;;;19.89;42.70;100935.50;6277712;22;45226;-76
2023/03/30 11:23:54;;;;;;;;;1.67;1.33;;;;;19.79;42.74;100939.19;6248665;22;46012;-75
2023/03/30 11:26:35;;;;;;;;;1.33;0.67;;;;;19.59;42.86;100923.28;6277327;22;46337;-78
2023/03/30 11:29:25;;;;;;;;;0.67;0.67;;;;;19.55;42.85;100943.00;6277681;22;45200;-78
2023/03/30 11:32:28;;;;;;;;;5.33;1.00;;;;;19.36;43.07;100934.25;6277269;22;45619;-77
2023/03/30 11:35:05;;;;;;;;;1.00;1.00;;;;;19.25;42.96;100895.06;6277785;22;45265;-78
2023/03/30 11:37:42;;;;;;;;;3.33;1.00;;;;;19.47;41.95;100910.03;6274094;22;45419;-79
2023/03/30 11:40:18;;;;;;;;;2.67;1.33;;;;;19.83;41.99;100923.97;6275075;22;45277;-75
2023/03/30 11:42:46;;;;;;;;;3.00;1.00;;;;;19.86;41.90;100903.34;6275808;22;45207;-75
2023/03/30 11:45:52;;;;;;;;;4.00;1.67;;;;;20.17;41.82;100928.91;6275860;22;45226;-75
2023/03/30 11:48:55;;;;;;;;;3.00;1.67;;;;;20.40;41.37;100939.34;6240577;22;45728;-74
2023/03/30 11:51:35;;;;;;;;;5.00;2.33;;;;;20.54;41.16;100934.69;6275786;22;45244;-74
2023/03/30 11:54:17;;;;;;;;;5.00;2.00;;;;;20.61;41.28;100952.47;6277278;22;45596;-75
2023/03/30 11:56:50;;;;;;;;;5.00;1.67;;;;;20.46;40.89;100932.06;6275313;22;45309;-75
2023/03/30 11:59:24;;;;;;;;;3.33;1.00;;;;;20.39;41.04;100945.59;6276477;22;45310;-75
2023/03/30 12:02:11;;;;;;;;;1.00;1.00;;;;;20.38;41.71;100949.19;6274701;22;45245;-75
2023/03/30 12:04:46;;;;;;;;;2.33;1.00;;;;;20.24;41.65;100927.91;6277449;22;45232;-75
2023/03/30 12:07:34;;;;;;;;;2.67;1.00;;;;;20.20;41.73;100900.22;6275521;22;45317;-75
2023/03/30 12:10:15;;;;;;;;;1.67;0.33;;;;;20.48;41.48;100916.81;6276005;22;45444;-75
2023/03/30 12:12:41;;;;;;;;;1.33;0.00;;;;;20.57;40.39;100921.19;6277123;22;45215;-75
2023/03/30 12:15:17;;;;;;;;;1.33;1.00;;;;;20.80;40.65;100926.22;6251163;22;45246;-75
2023/03/30 12:18:00;;;;;;;;;0.33;0.33;;;;;20.93;40.11;100930.50;6277442;22;45293;-75
2023/03/30 12:20:44;;;;;;;;;0.67;0.67;;;;;21.09;40.01;100924.84;6277732;22;45397;-75
2023/03/30 12:23:28;;;;;;;;;2.67;1.33;;;;;21.08;39.90;100898.88;6277615;22;45219;-75
2023/03/30 12:26:23;;;;;;;;;2.67;1.33;;;;;21.24;40.03;100905.78;6275039;22;45215;-74
2023/03/30 12:28:51;;;;;;;;;2.00;1.67;;;;;21.48;40.07;100925.97;6276943;22;45708;-76
2023/03/30 12:31:17;;;;;;;;;5.00;3.00;;;;;21.51;39.81;100904.41;6277248;22;45247;-75
2023/03/30 12:33:48;;;;;;;;;5.00;1.67;;;;;21.50;39.91;100882.91;6277647;22;45290;-75
2023/03/30 12:36:25;;;;;;;;;3.00;2.00;;;;;21.58;39.97;100919.50;6275037;22;45257;-75
2023/03/30 12:38:56;;;;;;;;;2.67;0.00;;;;;21.73;39.99;100915.63;6277689;22;45210;-75
2023/03/30 12:41:24;;;;;;;;;2.75;0.50;;;;;21.84;39.94;100910.03;6277298;22;45312;-75
2023/03/30 12:44:17;;;;;;;;;2.33;1.67;;;;;21.67;39.58;100888.84;6275219;22;45330;-75
2023/03/30 12:47:01;;;;;;;;;3.33;1.33;;;;;21.94;39.84;100895.47;6277367;22;45220;-75
2023/03/30 12:49:29;;;;;;;;;2.33;0.67;;;;;21.87;39.50;100899.19;6275622;22;45364;-76
2023/03/30 12:52:25;;;;;;;;;1.00;0.00;;;;;21.60;40.25;100908.72;6276722;22;46561;-76
2023/03/30 12:55:17;;;;;;;;;4.33;2.00;;;;;21.24;41.77;100911.16;6277344;22;45974;-75
2023/03/30 12:58:10;;;;;;;;;1.00;1.00;;;;;20.77;43.44;100900.28;6277402;22;45099;-75
2023/03/30 13:00:54;;;;;;;;;2.67;1.67;;;;;20.44;44.54;100898.09;6277227;22;45468;-75
2023/03/30 13:03:31;;;;;;;;;3.33;3.00;;;;;20.00;45.12;100891.56;6277262;22;45570;-75
2023/03/30 13:06:00;;;;;;;;;1.00;0.00;;;;;19.53;46.43;100866.16;6277456;22;45161;-76
2023/03/30 13:08:38;;;;;;;;;7.67;0.67;;;;;19.42;47.47;100885.94;6277789;22;45266;-75
2023/03/30 13:11:12;;;;;;;;;3.00;2.00;;;;;19.46;47.66;100876.06;6277008;22;45234;-75
2023/03/30 13:13:45;;;;;;;;;1.67;0.00;;;;;19.60;47.64;100876.78;6277132;22;45266;-76
2023/03/30 13:16:11;;;;;;;;;0.67;0.67;;;;;19.74;46.41;100881.13;6275075;22;45612;-75
2023/03/30 13:18:54;;;;;;;;;2.33;2.00;;;;;19.79;46.04;100847.09;6276511;22;45389;-76
2023/03/30 13:21:24;;;;;;;;;0.33;0.33;;;;;19.84;44.76;100856.88;6275953;22;46105;-76
2023/03/30 13:24:34;;;;;;;;;2.67;0.33;;;;;20.05;44.12;100866.44;6278226;22;45488;-76
2023/03/30 13:27:18;;;;;;;;;0.00;0.00;;;;;20.32;43.73;100858.88;6205480;22;45532;-76
2023/03/30 13:30:02;;;;;;;;;3.33;0.00;;;;;20.51;42.93;100852.31;6275243;22;45256;-75
2023/03/30 13:32:52;;;;;;;;;1.67;1.00;;;;;20.62;42.59;100851.31;6277528;22;45082;-76
2023/03/30 13:35:37;;;;;;;;;3.00;0.33;;;;;20.53;41.89;100834.44;6278188;22;46328;-76
2023/03/30 13:38:39;;;;;;;;;3.00;0.00;;;;;20.77;42.08;100834.91;6277942;22;45563;-77
2023/03/30 13:41:27;;;;;;;;;2.00;0.00;;;;;20.98;41.68;100818.44;6275288;22;45229;-76
2023/03/30 13:44:24;;;;;;;;;1.33;0.00;;;;;21.26;40.50;100831.34;6276803;22;45691;-76
2023/03/30 13:47:15;;;;;;;;;3.67;0.67;;;;;21.32;40.97;100804.34;6278010;22;45934;-75
2023/03/30 13:50:07;;;;;;;;;0.00;0.00;;;;;21.66;38.98;100825.19;6276586;22;45260;-76
2023/03/30 13:52:40;;;;;;;;;1.00;1.00;;;;;21.73;39.84;100807.13;6233393;22;45274;-74
2023/03/30 13:55:16;;;;;;;;;0.75;0.75;;;;;21.74;39.96;100790.06;6278381;22;45657;-75
2023/03/30 13:57:43;;;;;;;;;2.75;1.00;;;;;22.07;40.37;100804.53;6277815;22;45373;-75
2023/03/30 14:00:27;;;;;;;;;2.50;0.75;;;;;22.12;39.71;100802.63;6275999;22;45617;-75
2023/03/30 14:02:52;;;;;;;;;0.75;0.50;;;;;22.08;37.83;100809.03;6278162;22;45236;-75
2023/03/30 14:05:21;;;;;;;;;1.50;0.00;;;;;22.41;38.77;100814.59;6278671;22;45405;-74
2023/03/30 14:07:47;;;;;;;;;3.00;1.00;;;;;22.31;38.12;100787.84;6277705;22;46607;-75
2023/03/30 14:10:19;;;;;;;;;0.75;0.75;;;;;22.38;38.32;100795.78;6278533;22;45240;-75
2023/03/30 14:12:47;;;;;;;;;2.75;1.00;;;;;22.29;38.35;100804.97;6277957;22;45158;-75
2023/03/30 14:15:15;;;;;;;;;0.50;0.00;;;;;22.41;38.54;100842.41;6277687;22;45252;-75
2023/03/30 14:17:46;;;;;;;;;2.00;1.00;;;;;22.23;38.40;100787.16;6277420;22;45299;-75
2023/03/30 14:20:26;;;;;;;;;1.00;1.00;;;;;22.25;38.63;100800.59;6277512;22;45248;-76
2023/03/30 14:22:54;;;;;;;;;0.75;0.75;;;;;22.35;38.59;100788.69;6275453;22;45271;-75
2023/03/30 14:25:34;;;;;;;;;2.00;1.00;;;;;22.34;38.58;100816.53;6275296;22;46824;-75
2023/03/30 14:28:18;;;;;;;;;1.75;0.25;;;;;21.84;38.99;100779.03;6273928;22;47795;-75
2023/03/30 14:30:48;;;;;;;;;0.75;0.75;;;;;21.65;39.54;100807.31;6277178;22;45412;-75
2023/03/30 14:33:13;;;;;;;;;2.25;0.75;;;;;21.47;39.97;100831.88;6276361;22;45208;-75
2023/03/30 14:35:49;;;;;;;;;1.50;0.50;;;;;21.09;41.53;100847.81;6277994;22;45192;-76
2023/03/30 14:38:46;;;;;;;;;2.00;0.00;;;;;20.56;42.83;100847.81;6277518;22;45572;-76
2023/03/30 14:41:22;;;;;;;;;1.33;0.67;;;;;19.97;43.72;100792.28;6251719;22;45356;-78
2023/03/30 14:43:58;;;;;;;;;2.33;1.00;;;;;19.92;44.71;100821.00;6278232;22;45510;-76
2023/03/30 14:46:38;;;;;;;;;2.67;0.67;;;;;19.59;46.45;100793.69;6276227;22;45253;-76
2023/03/30 14:49:04;;;;;;;;;4.67;2.67;;;;;19.36;48.38;100799.34;6276258;22;47087;-78
2023/03/30 14:51:40;;;;;;;;;5.00;3.00;;;;;19.20;46.99;100812.00;6302482;22;45279;-76
2023/03/30 14:54:07;;;;;;;;;0.67;0.67;;;;;18.90;47.56;100783.75;6275924;22;45274;-76
2023/03/30 14:56:33;;;;;;;;;4.67;1.67;;;;;18.76;47.06;100818.69;6278022;22;45315;-76
2023/03/30 14:59:00;;;;;;;;;0.00;0.00;;;;;18.41;48.85;100833.25;6278046;22;45526;-76
2023/03/30 15:01:30;;;;;;;;;3.67;0.33;;;;;18.22;50.61;100844.97;6277851;22;45271;-75
2023/03/30 15:04:09;;;;;;;;;1.33;1.33;;;;;17.86;51.46;100806.84;6276467;22;45257;-77
2023/03/30 15:06:36;;;;;;;;;5.67;3.67;;;;;17.94;52.61;100825.53;6275541;22;45970;-76
2023/03/30 15:09:08;;;;;;;;;1.33;1.33;;;;;17.99;55.36;100824.59;6278294;22;45546;-76
2023/03/30 15:11:37;;;;;;;;;5.67;5.67;;;;;18.09;55.48;100812.94;6278026;22;45269;-75
2023/03/30 15:14:08;;;;;;;;;4.67;2.33;;;;;17.94;52.99;100767.56;6275577;22;45304;-76
2023/03/30 15:16:35;;;;;;;;;2.00;2.00;;;;;18.09;56.09;100772.81;6277600;22;45314;-75
2023/03/30 15:19:35;;;;;;;;;1.00;1.00;;;;;18.32;53.84;100799.41;6277761;22;45491;-75
2023/03/30 15:22:20;;;;;;;;;0.00;0.00;;;;;18.20;52.89;100764.69;6271757;22;45435;-76
2023/03/30 15:24:46;;;;;;;;;5.00;1.67;;;;;18.21;53.03;100766.50;6278183;22;45167;-75
2023/03/30 15:27:15;;;;;;;;;4.00;1.33;;;;;18.15;54.49;100744.22;6277759;22;45220;-75
2023/03/30 15:29:40;;;;;;;;;1.00;1.00;;;;;18.33;52.45;100781.56;6274758;22;46788;-76
2023/03/30 15:32:09;;;;;;;;;2.00;0.67;;;;;18.22;52.82;100783.44;6276019;22;45232;-75
2023/03/30 15:34:34;;;;;;;;;3.00;2.00;;;;;18.05;52.89;100765.69;6275917;22;45225;-75
2023/03/30 15:37:00;;;;;;;;;4.33;2.00;;;;;17.80;53.74;100738.22;6277791;22;45482;-75
2023/03/30 15:39:32;;;;;;;;;3.00;2.00;;;;;17.97;53.49;100761.31;6277784;22;45541;-75
2023/03/30 15:42:08;;;;;;;;;3.33;0.67;;;;;17.98;51.95;100739.00;6276044;22;45280;-75
2023/03/30 15:44:36;;;;;;;;;1.33;1.00;;;;;18.21;52.04;100750.44;6276971;22;45195;-75
2023/03/30 15:47:05;;;;;;;;;3.67;0.67;;;;;18.01;52.45;100702.44;6302256;22;46358;-75
2023/03/30 15:49:44;;;;;;;;;3.67;1.67;;;;;18.32;51.67;100731.63;6277450;22;45290;-75
2023/03/30 15:52:31;;;;;;;;;3.33;2.33;;;;;18.33;52.21;100744.09;6278032;22;45281;-74
2023/03/30 15:55:06;;;;;;;;;3.00;2.00;;;;;17.95;52.91;100672.16;6278057;22;45176;-74
2023/03/30 15:57:32;;;;;;;;;9.00;4.33;;;;;18.21;52.61;100734.38;6277648;22;45219;-74
2023/03/30 16:00:09;;;;;;;;;6.33;4.00;;;;;18.05;52.11;100714.88;6277231;22;45155;-75
2023/03/30 16:02:38;;;;;;;;;2.00;2.00;;;;;18.11;51.68;100754.06;6275542;22;45271;-75
2023/03/30 16:05:06;;;;;;;;;2.67;2.00;;;;;17.98;50.93;100737.25;6277930;22;45268;-74
2023/03/30 16:07:32;;;;;;;;;3.33;3.33;;;;;17.67;50.37;100701.75;6275580;22;45624;-73
2023/03/30 16:09:57;;;;;;;;;11.00;10.33;;;;;17.74;50.21;100724.88;6274169;22;47201;-74
2023/03/30 16:12:25;;;;;;;;;3.00;3.00;;;;;17.68;50.41;100722.25;6276119;22;45262;-74
2023/03/30 16:14:51;;;;;;;;;2.00;1.00;;;;;17.43;50.08;100697.44;6277151;22;45289;-74
2023/03/30 16:17:17;;;;;;;;;1.00;1.00;;;;;17.45;50.12;100709.91;6276625;22;45196;-74
2023/03/30 16:19:44;;;;;;;;;1.33;0.67;;;;;17.18;49.71;100676.19;6277856;22;45483;-73
2023/03/30 16:22:11;;;;;;;;;2.33;1.67;;;;;17.38;50.08;100713.50;6278301;22;45161;-73
2023/03/30 16:24:37;;;;;;;;;0.00;0.00;;;;;17.36;49.50;100714.38;6277978;22;45190;-74
2023/03/30 16:27:04;;;;;;;;;2.00;0.00;;;;;17.25;50.18;100709.09;6275750;22;46298;-74
2023/03/30 16:29:30;;;;;;;;;2.00;1.00;;;;;17.18;49.65;100705.56;6275206;22;47623;-74
2023/03/30 16:31:55;;;;;;;;;3.00;0.67;;;;;17.16;49.72;100714.47;6275562;22;45258;-74
2023/03/30 16:34:21;;;;;;;;;2.00;1.00;;;;;17.20;49.33;100722.50;6277757;22;45275;-74
2023/03/30 16:36:48;;;;;;;;;1.00;0.33;;;;;17.00;49.33;100706.53;6277433;22;45363;-74
2023/03/30 16:39:17;;;;;;;;;0.00;0.00;;;;;17.02;49.77;100717.19;6277862;22;46085;-74
2023/03/30 16:41:43;;;;;;;;;1.00;0.00;;;;;16.82;49.67;100700.38;6275628;22;45176;-74
2023/03/30 16:44:09;;;;;;;;;1.67;1.00;;;;;16.88;51.61;100719.91;6277318;22;45294;-74
2023/03/30 16:46:34;;;;;;;;;3.00;0.67;;;;;16.85;51.59;100727.06;6277161;22;45444;-74
2023/03/30 16:49:00;;;;;;;;;0.00;0.00;;;;;16.51;52.06;100684.38;6277217;22;46040;-76
2023/03/30 16:51:25;;;;;;;;;2.00;0.00;;;;;16.68;51.39;100727.94;6274996;22;45281;-74
2023/03/30 16:53:51;;;;;;;;;3.33;2.00;;;;;16.61;51.91;100725.28;6277546;22;45179;-76
2023/03/30 16:56:18;;;;;;;;;0.00;0.00;;;;;16.50;51.86;100715.53;6277475;22;44816;-73
2023/03/30 16:58:44;;;;;;;;;2.00;1.00;;;;;16.49;51.67;100718.19;6275042;22;46306;-73
2023/03/30 17:01:12;;;;;;;;;1.67;1.00;;;;;16.43;52.22;100700.41;6276205;22;45353;-74
2023/03/30 17:03:38;;;;;;;;;2.33;1.00;;;;;16.32;52.46;100681.72;6277251;22;45180;-74
2023/03/30 17:06:04;;;;;;;;;3.00;1.00;;;;;16.43;51.92;100704.84;6274094;22;46000;-72
2023/03/30 17:08:30;;;;;;;;;1.67;0.00;;;;;16.35;52.81;100696.84;6301285;22;47241;-73
2023/03/30 17:11:03;;;;;;;;;2.00;2.00;;;;;16.43;52.90;100718.19;6276549;22;45255;-72
2023/03/30 17:13:29;;;;;;;;;4.00;1.00;;;;;16.39;52.90;100711.09;6276971;22;45273;-73
2023/03/30 17:15:57;;;;;;;;;7.33;4.67;;;;;16.15;52.48;100677.31;6276637;22;45255;-73
2023/03/30 17:18:23;;;;;;;;;2.33;1.33;;;;;16.34;53.86;100714.66;6274600;22;47076;-74
2023/03/30 17:20:51;;;;;;;;;4.67;3.00;;;;;16.32;53.60;100713.75;6276725;22;45220;-74
2023/03/30 17:23:21;;;;;;;;;6.00;5.00;;;;;16.25;54.15;100706.66;6277135;22;45163;-74
2023/03/30 17:25:47;;;;;;;;;5.00;2.00;;;;;16.29;54.90;100713.75;6276715;22;45279;-74
2023/03/30 17:28:26;;;;;;;;;7.33;4.33;;;;;16.28;54.66;100714.66;6276416;22;45337;-75
2023/03/30 17:30:55;;;;;;;;;10.67;6.00;;;;;16.22;54.03;100690.66;6275617;22;45153;-75
2023/03/30 17:33:20;;;;;;;;;3.00;3.00;;;;;16.15;55.08;100677.31;6276654;22;45286;-75
2023/03/30 17:35:49;;;;;;;;;6.00;3.00;;;;;16.21;54.36;100682.63;6274308;22;45454;-75
2023/03/30 17:38:16;;;;;;;;;2.33;2.33;;;;;16.10;54.42;100661.31;6276711;22;46483;-75
2023/03/30 17:40:43;;;;;;;;;6.67;3.33;;;;;16.27;56.18;100693.31;6276625;22;45184;-74
2023/03/30 17:43:09;;;;;;;;;5.00;3.33;;;;;16.18;54.58;100679.97;6276774;22;45318;-74
2023/03/30 17:45:37;;;;;;;;;2.00;2.00;;;;;16.26;54.29;100702.19;6276262;22;45208;-75
2023/03/30 17:48:04;;;;;;;;;2.00;2.00;;;;;16.22;54.63;100695.09;6276701;22;46073;-74
2023/03/30 17:50:32;;;;;;;;;10.33;5.00;;;;;16.20;54.82;100694.22;6276577;22;45273;-73
2023/03/30 17:52:58;;;;;;;;;4.67;3.00;;;;;16.03;57.63;100681.75;6276629;22;45156;-74
2023/03/30 17:55:28;;;;;;;;;3.67;2.00;;;;;16.07;56.46;100679.97;6276358;22;45327;-74
2023/03/30 17:57:55;;;;;;;;;3.00;3.00;;;;;16.09;55.59;100683.53;6276203;22;45527;-73
2023/03/30 18:00:22;;;;;;;;;4.67;0.67;;;;;15.95;55.83;100672.88;6276285;22;45291;-74
2023/03/30 18:02:49;;;;;;;;;3.00;2.00;;;;;15.92;55.72;100664.88;6275987;22;45271;-73
2023/03/30 18:05:16;;;;;;;;;4.00;3.67;;;;;15.85;56.16;100658.66;6277913;22;45263;-73
2023/03/30 18:07:41;;;;;;;;;8.33;5.00;;;;;15.98;55.25;100678.19;6275250;22;47672;-74
2023/03/30 18:10:17;;;;;;;;;3.33;3.00;;;;;16.02;55.42;100696.00;6277872;22;45232;-74
2023/03/30 18:12:43;;;;;;;;;3.67;2.67;;;;;15.89;56.04;100673.75;6277908;22;45349;-74
2023/03/30 18:15:09;;;;;;;;;5.00;2.00;;;;;15.96;56.34;100671.09;6275449;22;46771;-73
2023/03/30 18:17:34;;;;;;;;;9.00;5.67;;;;;15.90;55.95;100650.66;6277787;22;46218;-74
2023/03/30 18:20:00;;;;;;;;;5.00;3.00;;;;;15.60;55.83;100609.75;6278178;22;44605;-73
2023/03/30 18:22:25;;;;;;;;;4.00;3.00;;;;;15.79;55.55;100650.63;6277780;22;45159;-74
2023/03/30 18:24:51;;;;;;;;;9.33;6.67;;;;;15.78;57.74;100659.53;6278255;22;45243;-74
2023/03/30 18:27:17;;;;;;;;;4.00;4.00;;;;;15.75;55.68;100648.00;6277431;22;47524;-74
2023/03/30 18:29:42;;;;;;;;;6.00;4.00;;;;;15.75;56.34;100653.31;6277582;22;45169;-73
2023/03/30 18:32:07;;;;;;;;;5.00;3.00;;;;;15.62;56.40;100645.25;6277802;22;45366;-73
2023/03/30 18:34:33;;;;;;;;;3.00;1.00;;;;;15.66;55.67;100648.84;6278040;22;45308;-74
2023/03/30 18:36:58;;;;;;;;;5.33;4.00;;;;;15.54;55.65;100636.38;6277409;22;46424;-73
2023/03/30 18:39:23;;;;;;;;;10.33;5.00;;;;;15.63;56.90;100651.50;6278022;22;45549;-74
2023/03/30 18:41:48;;;;;;;;;6.00;4.00;;;;;15.46;56.77;100624.84;6277952;22;45298;-74
2023/03/30 18:44:14;;;;;;;;;5.67;5.00;;;;;15.54;56.30;100623.06;6277636;22;45330;-73
2023/03/30 18:46:39;;;;;;;;;9.33;8.67;;;;;15.34;56.21;100590.19;6277025;22;57590;-73
2023/03/30 18:49:11;;;;;;;;;8.33;7.00;;;;;15.70;56.81;100649.75;6277979;22;45209;-73
2023/03/30 18:51:36;;;;;;;;;6.00;3.00;;;;;15.53;56.49;100626.63;6277906;22;45655;-74
2023/03/30 18:54:02;;;;;;;;;4.67;3.67;;;;;15.47;56.51;100612.41;6277798;22;45105;-73
2023/03/30 18:56:27;;;;;;;;;3.33;3.33;;;;;15.73;56.71;100657.75;6276127;22;45446;-73
2023/03/30 18:58:52;;;;;;;;;8.00;3.00;;;;;15.67;56.86;100645.28;6277174;22;53219;-73
2023/03/30 19:01:17;;;;;;;;;6.00;3.00;;;;;15.52;56.30;100606.19;6277913;22;45256;-73
2023/03/30 19:03:43;;;;;;;;;5.67;3.00;;;;;15.67;56.40;100629.28;6275971;22;46325;-72
2023/03/30 19:06:12;;;;;;;;;3.67;2.33;;;;;15.66;55.91;100635.53;6277407;22;45523;-72
2023/03/30 19:08:38;;;;;;;;;4.67;2.00;;;;;15.71;55.71;100654.19;6277916;22;45231;-74
2023/03/30 19:11:03;;;;;;;;;5.33;2.67;;;;;15.71;55.96;100646.19;6275314;22;45286;-73
2023/03/30 19:13:28;;;;;;;;;8.33;5.33;;;;;15.60;56.18;100638.16;6301235;22;53904;-73
2023/03/30 19:15:54;;;;;;;;;7.33;6.67;;;;;15.59;55.31;100639.94;6277151;22;50438;-73
2023/03/30 19:18:20;;;;;;;;;6.67;3.00;;;;;15.65;55.44;100655.03;6276489;22;45224;-73
2023/03/30 19:20:48;;;;;;;;;5.33;3.67;;;;;15.52;54.66;100642.63;6278237;22;45370;-73
2023/03/30 19:23:14;;;;;;;;;8.00;4.00;;;;;15.63;54.63;100660.38;6277495;22;45445;-74
2023/03/30 19:25:40;;;;;;;;;3.00;3.00;;;;;15.62;54.82;100649.72;6277393;22;45445;-73
2023/03/30 19:28:07;;;;;;;;;5.67;1.67;;;;;15.56;54.97;100641.72;6277756;22;45303;-74
2023/03/30 19:30:34;;;;;;;;;6.00;3.00;;;;;15.54;54.79;100633.72;6277288;22;45279;-73
2023/03/30 19:33:01;;;;;;;;;7.67;3.00;;;;;15.46;54.69;100619.53;6275716;22;45133;-73
2023/03/30 19:35:28;;;;;;;;;3.00;1.67;;;;;15.57;55.17;100630.16;6275251;22;47234;-73
2023/03/30 19:37:53;;;;;;;;;7.33;4.67;;;;;15.34;55.60;100600.84;6275806;22;45350;-73
2023/03/30 19:40:20;;;;;;;;;6.67;2.33;;;;;15.53;55.42;100629.28;6277679;22;45203;-73
2023/03/30 19:42:46;;;;;;;;;1.67;1.67;;;;;15.48;55.28;100632.81;6275363;22;45515;-73
2023/03/30 19:45:13;;;;;;;;;7.67;4.33;;;;;15.49;55.75;100629.25;6277356;22;45273;-73
2023/03/30 19:47:39;;;;;;;;;3.33;2.33;;;;;15.49;55.15;100632.84;6277905;22;45227;-73
2023/03/30 19:50:09;;;;;;;;;4.67;2.67;;;;;15.36;55.51;100613.28;6277848;22;45144;-73
2023/03/30 19:52:34;;;;;;;;;6.33;4.00;;;;;15.39;55.30;100623.03;6275519;22;46547;-73
2023/03/30 19:55:00;;;;;;;;;3.33;3.33;;;;;15.48;55.41;100640.81;6275583;22;46911;-73
2023/03/30 19:57:25;;;;;;;;;8.00;4.00;;;;;15.40;55.92;100627.47;6277507;22;45266;-73
2023/03/30 19:59:51;;;;;;;;;6.33;3.33;;;;;15.38;55.80;100621.28;6277608;22;45243;-73
2023/03/30 20:02:16;;;;;;;;;5.33;3.33;;;;;15.48;55.67;100638.16;6276938;22;45412;-73
2023/03/30 20:04:43;;;;;;;;;3.67;3.67;;;;;15.41;55.46;100626.59;6277641;22;45379;-74
2023/03/30 20:07:10;;;;;;;;;4.33;3.33;;;;;15.45;55.45;100628.38;6277591;22;45556;-74
2023/03/30 20:09:37;;;;;;;;;6.67;4.00;;;;;15.44;56.22;100630.16;6276016;22;45175;-75
2023/03/30 20:12:03;;;;;;;;;5.00;4.00;;;;;15.52;55.35;100646.16;6277551;22;45331;-75
2023/03/30 20:14:29;;;;;;;;;6.00;3.00;;;;;15.51;55.51;100644.38;6275098;22;47050;-75
2023/03/30 20:16:54;;;;;;;;;3.00;2.00;;;;;15.43;56.39;100630.13;6300828;22;45173;-75